Time;durP1;ratioP1;P1;durP2;ratioP2;P2;SDS_P1;SDS_P2;PMS_P1;PMS_P2;Temp;Humidity;BMP_temperature;BMP_pressure;BME280_temperature;BME280_humidity;BME280_pressure;Samples;Min_cycle;Max_cycle;Signal;HPM_P1;HPM_P2
2022/12/26 00:04:22;;;;;;;4.18;3.35;;;;;;;11.71;82.09;99880.03;10290876;28;20054;-64
2022/12/26 00:09:43;;;;;;;4.00;3.08;;;;;;;11.71;82.24;99877.38;10307590;28;20053;-66
2022/12/26 00:14:45;;;;;;;3.83;3.38;;;;;;;11.65;81.58;99868.97;10301265;28;21365;-66
2022/12/26 00:19:46;;;;;;;5.75;3.65;;;;;;;11.66;81.97;99862.66;10310570;28;20465;-66
2022/12/26 00:24:47;;;;;;;5.03;3.30;;;;;;;11.71;81.74;99869.38;10289521;28;20062;-65
2022/12/26 00:29:49;;;;;;;4.38;3.35;;;;;;;11.54;81.62;99837.09;10311095;28;20143;-67
2022/12/26 00:34:50;;;;;;;2.97;2.40;;;;;;;11.78;81.44;99849.16;10294474;28;20129;-66
2022/12/26 00:39:52;;;;;;;6.55;3.95;;;;;;;11.79;80.87;99848.19;10316822;28;20041;-65
2022/12/26 00:44:53;;;;;;;3.88;2.70;;;;;;;11.79;80.97;99856.19;10314292;28;20472;-65
2022/12/26 00:49:54;;;;;;;2.85;2.50;;;;;;;11.81;80.77;99859.53;10297115;28;20116;-67
2022/12/26 00:55:14;;;;;;;4.93;2.80;;;;;;;11.82;80.79;99872.75;10297535;28;20087;-66
2022/12/26 01:00:16;;;;;;;3.65;2.70;;;;;;;11.80;80.57;99872.06;10312516;28;20145;-67
2022/12/26 01:05:17;;;;;;;3.97;2.78;;;;;;;11.65;80.66;99852.97;10310345;28;20054;-65
2022/12/26 01:10:19;;;;;;;4.65;3.20;;;;;;;11.73;80.90;99862.09;10310019;28;20054;-65
2022/12/26 01:15:20;;;;;;;3.75;2.83;;;;;;;11.70;80.80;99865.03;10294070;28;20248;-65
2022/12/26 01:20:22;;;;;;;4.72;3.05;;;;;;;11.72;80.74;99876.41;10312899;28;20058;-65
2022/12/26 01:25:23;;;;;;;4.55;3.17;;;;;;;11.77;80.40;99884.81;10336294;28;20054;-65
2022/12/26 01:30:24;;;;;;;3.13;2.70;;;;;;;11.77;80.83;99887.47;10317856;28;20058;-64
2022/12/26 01:35:25;;;;;;;3.30;2.58;;;;;;;11.78;80.46;99875.84;10310235;28;20045;-65
2022/12/26 01:40:27;;;;;;;5.20;3.20;;;;;;;11.83;80.34;99870.94;10313693;28;20061;-67
2022/12/26 01:45:30;;;;;;;3.90;2.63;;;;;;;11.84;79.77;99892.13;10313583;28;20054;-63
2022/12/26 01:50:43;;;;;;;5.07;2.65;;;;;;;11.88;80.32;99910.50;10311241;28;20140;-65
2022/12/26 01:55:50;;;;;;;3.72;2.40;;;;;;;11.84;79.93;99899.25;10308613;28;20093;-67
2022/12/26 02:00:53;;;;;;;4.28;2.40;;;;;;;11.75;79.60;99897.44;10312873;28;20076;-66
2022/12/26 02:05:57;;;;;;;4.00;2.50;;;;;;;11.77;79.65;99898.13;10295314;28;20164;-66
2022/12/26 02:11:06;;;;;;;4.95;2.95;;;;;;;11.84;79.24;99909.94;10318837;28;20452;-66
2022/12/26 02:16:12;;;;;;;3.53;2.53;;;;;;;11.86;79.58;99924.00;10312794;28;20113;-65
2022/12/26 02:21:40;;;;;;;3.50;2.65;;;;;;;11.84;79.35;99915.25;10309081;28;20054;-64
2022/12/26 02:27:03;;;;;;;4.75;2.80;;;;;;;11.82;79.23;99919.91;10309080;28;20050;-68
2022/12/26 02:32:18;;;;;;;4.90;3.47;;;;;;;11.87;79.10;99931.00;10307176;28;20053;-66
2022/12/26 02:37:38;;;;;;;2.80;2.50;;;;;;;11.87;79.47;99933.66;10308360;28;20046;-66
2022/12/26 02:42:46;;;;;;;3.97;2.40;;;;;;;11.88;79.88;99923.84;10290972;28;20593;-67
2022/12/26 02:48:08;;;;;;;3.85;2.60;;;;;;;11.86;80.14;99921.31;10291352;28;20503;-66
2022/12/26 03:21:15;;;;;;;2.63;2.00;;;;;;;11.84;79.76;99917.94;10333186;28;20134;-65
2022/12/26 03:26:39;;;;;;;4.78;2.30;;;;;;;11.96;79.29;99924.00;10306517;28;20532;-67
2022/12/26 03:31:40;;;;;;;5.30;2.40;;;;;;;11.95;79.21;99909.84;10297200;28;20065;-65
2022/12/26 03:36:59;;;;;;;2.42;1.80;;;;;;;12.00;79.29;99928.91;10308824;28;20420;-66
2022/12/26 04:21:05;;;;;;;3.25;1.90;;;;;;;11.97;79.30;99899.03;10319019;28;20116;-65
2022/12/26 04:53:20;;;;;;;4.47;2.42;;;;;;;11.80;80.00;99919.19;10312365;28;20050;-66
2022/12/26 04:58:23;;;;;;;4.30;2.00;;;;;;;11.80;79.82;99904.03;10309438;28;20050;-64
2022/12/26 05:14:06;;;;;;;4.32;2.45;;;;;;;11.80;80.20;99900.53;10313815;28;20125;-66
2022/12/26 05:29:59;;;;;;;3.90;2.42;;;;;;;11.80;80.07;99901.38;10311533;28;20053;-62
2022/12/26 05:35:01;;;;;;;5.40;2.80;;;;;;;11.84;79.73;99917.94;10310099;28;20128;-63
2022/12/26 05:40:03;;;;;;;5.22;2.40;;;;;;;11.90;79.40;99921.88;10295172;28;20054;-65
2022/12/26 05:45:05;;;;;;;2.38;1.95;;;;;;;11.91;79.32;99908.41;10320190;28;20184;-64
2022/12/26 05:50:07;;;;;;;2.22;1.65;;;;;;;12.00;79.13;99934.25;10313684;28;20212;-64
2022/12/26 05:55:08;;;;;;;3.92;1.52;;;;;;;11.81;79.11;99904.88;10312901;28;20053;-65
2022/12/26 06:00:10;;;;;;;3.80;2.03;;;;;;;12.06;79.12;99943.53;10312431;28;20060;-66
2022/12/26 06:05:12;;;;;;;5.55;2.10;;;;;;;12.11;78.95;99953.78;10310784;28;20054;-65
2022/12/26 06:10:13;;;;;;;5.47;2.47;;;;;;;12.14;78.99;99932.16;10303364;28;20049;-67
2022/12/26 06:15:15;;;;;;;5.03;2.70;;;;;;;12.17;78.92;99937.19;10335652;28;20402;-65
2022/12/26 06:20:16;;;;;;;3.42;1.60;;;;;;;12.20;78.66;99950.25;10295138;28;20069;-64
2022/12/26 06:25:17;;;;;;;3.55;2.00;;;;;;;12.12;78.60;99942.97;10311744;28;20801;-67
2022/12/26 06:30:19;;;;;;;2.88;1.77;;;;;;;12.23;78.25;99955.31;10310934;28;20046;-64
2022/12/26 06:35:21;;;;;;;4.10;1.60;;;;;;;12.16;78.41;99956.84;10312851;28;20069;-64
2022/12/26 06:40:22;;;;;;;2.80;2.08;;;;;;;12.21;78.44;99973.28;10310632;28;20149;-65
2022/12/26 06:45:24;;;;;;;3.58;2.60;;;;;;;12.13;78.39;99950.00;10309376;28;20051;-64
2022/12/26 06:50:25;;;;;;;2.88;1.90;;;;;;;12.25;78.39;99964.03;10306754;28;20053;-64
2022/12/26 06:55:27;;;;;;;4.10;1.70;;;;;;;12.25;78.34;99966.69;10292202;28;20054;-64
2022/12/26 07:00:28;;;;;;;2.95;2.08;;;;;;;12.22;78.24;99958.97;10307860;28;20666;-63
2022/12/26 07:05:30;;;;;;;4.75;2.67;;;;;;;12.20;78.58;99961.78;10291033;28;20567;-63
2022/12/26 07:10:35;;;;;;;3.80;1.73;;;;;;;12.11;78.43;99945.75;10307152;28;20058;-65
2022/12/26 07:15:37;;;;;;;3.60;2.03;;;;;;;12.15;78.73;99952.50;10307002;28;20141;-64
2022/12/26 07:20:38;;;;;;;3.63;2.33;;;;;;;12.21;78.50;99949.28;10307378;28;20309;-65
2022/12/26 07:25:40;;;;;;;2.15;1.55;;;;;;;12.22;78.93;99966.13;10297133;28;20061;-66
2022/12/26 07:30:48;;;;;;;3.03;2.13;;;;;;;12.20;78.87;99966.25;10297037;28;20049;-66
2022/12/26 07:35:50;;;;;;;3.67;1.75;;;;;;;12.25;79.32;99984.50;10307538;28;20134;-65
2022/12/26 07:40:55;;;;;;;3.00;2.15;;;;;;;12.18;79.68;99985.09;10311206;28;20050;-66
2022/12/26 07:45:56;;;;;;;4.70;2.85;;;;;;;12.14;82.95;99998.84;10307548;28;20053;-65
2022/12/26 07:51:00;;;;;;;4.30;1.98;;;;;;;12.08;85.56;100002.06;10352944;28;20298;-65
2022/12/26 07:56:02;;;;;;;3.08;2.08;;;;;;;11.87;87.40;100013.66;10378207;28;20128;-62
2022/12/26 08:01:05;;;;;;;4.20;2.13;;;;;;;11.75;89.58;100020.09;10337620;28;20116;-64
2022/12/26 08:06:10;;;;;;;4.00;2.40;;;;;;;11.63;91.40;100012.22;10303395;28;20049;-64
2022/12/26 08:11:19;;;;;;;3.30;2.30;;;;;;;11.64;93.31;100008.56;10317853;28;20243;-65
2022/12/26 08:16:20;;;;;;;4.32;2.17;;;;;;;11.71;93.09;100022.22;10307830;28;20499;-65
2022/12/26 08:21:22;;;;;;;2.03;1.58;;;;;;;11.59;93.72;100001.94;10315310;28;20049;-64
2022/12/26 08:26:23;;;;;;;5.07;2.63;;;;;;;11.55;94.25;99982.72;10311420;28;20592;-66
2022/12/26 08:31:24;;;;;;;3.55;2.30;;;;;;;11.59;94.57;99988.63;10313202;28;20050;-64
2022/12/26 08:36:31;;;;;;;4.47;2.72;;;;;;;11.57;94.36;100002.09;10331074;28;20069;-62
2022/12/26 08:41:32;;;;;;;5.40;2.75;;;;;;;11.60;94.94;99993.81;10311182;28;20136;-64
2022/12/26 08:46:35;;;;;;;3.67;2.55;;;;;;;11.65;94.89;100012.94;10291015;28;20053;-64
2022/12/26 08:51:38;;;;;;;3.83;2.33;;;;;;;11.62;95.42;100037.19;10309012;28;20069;-64
2022/12/26 08:56:39;;;;;;;5.20;3.03;;;;;;;11.61;95.51;100027.50;10318990;28;22829;-63
2022/12/26 09:01:41;;;;;;;3.45;2.30;;;;;;;11.60;95.38;100055.13;10308222;28;20046;-65
2022/12/26 09:06:43;;;;;;;4.82;2.50;;;;;;;11.53;96.31;100053.13;10315234;28;20061;-63
2022/12/26 09:11:44;;;;;;;6.15;2.63;;;;;;;11.47;96.68;100062.53;10316531;28;20488;-63
2022/12/26 09:16:46;;;;;;;3.83;2.67;;;;;;;11.53;96.12;100074.47;10310594;28;20112;-64
2022/12/26 09:22:49;;;;;;;3.83;2.42;;;;;;;11.43;96.12;100058.44;10308995;28;20983;-62
2022/12/26 09:27:12;;;;;;;5.03;2.38;;;;;;;11.49;96.48;100089.91;10303848;28;20590;-64
2022/12/26 09:32:14;;;;;;;3.50;2.35;;;;;;;11.44;96.63;100092.09;10313871;28;20117;-62
2022/12/26 09:37:15;;;;;;;4.40;2.75;;;;;;;11.45;96.00;100107.13;10317523;28;20056;-63
2022/12/26 09:42:42;;;;;;;2.60;2.00;;;;;;;11.48;95.87;100099.72;10315231;28;20084;-64
2022/12/26 09:48:05;;;;;;;2.90;1.85;;;;;;;11.47;96.06;100094.53;10300944;28;20511;-64
2022/12/26 09:53:17;;;;;;;2.22;1.80;;;;;;;11.49;96.30;100081.91;10319381;28;20457;-62
2022/12/26 09:58:47;;;;;;;3.20;2.00;;;;;;;11.55;95.76;100084.03;10313471;28;20519;-63
2022/12/26 10:03:57;;;;;;;2.95;1.73;;;;;;;11.53;95.79;100104.66;10307598;28;20339;-64
2022/12/26 10:09:24;;;;;;;3.17;2.15;;;;;;;11.63;94.82;100118.88;10301150;28;20553;-63
2022/12/26 10:15:03;;;;;;;2.42;1.77;;;;;;;11.60;94.60;100119.13;10304367;28;20349;-62
2022/12/26 10:20:24;;;;;;;2.05;1.85;;;;;;;11.55;94.56;100093.84;10305371;28;21514;-62
2022/12/26 10:25:36;;;;;;;3.20;1.88;;;;;;;11.59;94.10;100098.78;10310763;28;20042;-63
2022/12/26 10:30:41;;;;;;;3.67;1.90;;;;;;;11.62;93.65;100087.84;10304631;28;20468;-66
2022/12/26 10:35:44;;;;;;;3.08;1.58;;;;;;;11.55;93.48;100092.03;10306880;28;20049;-64
2022/12/26 10:40:49;;;;;;;2.53;1.83;;;;;;;11.59;93.47;100128.09;10302359;28;20045;-63
2022/12/26 10:45:56;;;;;;;2.80;1.33;;;;;;;11.58;92.95;100122.91;10291655;28;20428;-63
2022/12/26 10:50:58;;;;;;;2.42;2.15;;;;;;;11.41;92.88;100087.91;10310475;28;20050;-61
2022/12/26 10:56:00;;;;;;;2.55;1.48;;;;;;;11.53;92.51;100128.66;10302616;28;20130;-64
2022/12/26 11:01:26;;;;;;;2.92;1.58;;;;;;;11.60;92.30;100128.94;10331204;28;20060;-64
2022/12/26 11:06:37;;;;;;;2.83;1.50;;;;;;;11.54;91.79;100130.31;10308343;28;20113;-66
2022/12/26 11:11:47;;;;;;;2.40;1.27;;;;;;;11.69;91.55;100133.47;10306549;28;20731;-63
2022/12/26 11:16:49;;;;;;;1.48;1.10;;;;;;;11.84;90.32;100136.63;10287205;28;20500;-64
2022/12/26 11:21:50;;;;;;;3.28;1.73;;;;;;;11.89;90.16;100134.41;10301113;28;20085;-64
2022/12/26 11:27:11;;;;;;;1.90;1.20;;;;;;;11.87;89.75;100125.69;10302635;28;20106;-65
2022/12/26 11:32:19;;;;;;;1.55;0.90;;;;;;;11.88;88.98;100132.72;10305390;28;20224;-64
2022/12/26 11:37:27;;;;;;;1.98;1.63;;;;;;;11.83;88.41;100142.94;10304903;28;20053;-63
2022/12/26 11:42:29;;;;;;;2.88;1.50;;;;;;;11.83;87.75;100135.78;10310647;28;20857;-65
2022/12/26 11:47:30;;;;;;;1.67;0.60;;;;;;;11.91;87.23;100137.78;10307745;28;20104;-65
2022/12/26 11:52:47;;;;;;;1.63;0.60;;;;;;;11.92;86.97;100130.59;10305954;28;20057;-64
2022/12/26 11:58:09;;;;;;;1.55;0.80;;;;;;;11.94;87.38;100134.88;10306771;28;20156;-65
2022/12/26 12:03:29;;;;;;;2.13;1.33;;;;;;;11.95;87.41;100123.22;10296830;28;20136;-65
2022/12/26 12:08:37;;;;;;;1.00;0.70;;;;;;;12.03;88.17;100120.72;10294213;28;20058;-65
2022/12/26 12:13:51;;;;;;;1.70;1.30;;;;;;;11.82;87.39;100094.09;10295409;28;20120;-65
2022/12/26 12:19:37;;;;;;;2.10;1.40;;;;;;;12.12;87.85;100118.22;10319980;28;20146;-67
2022/12/26 12:25:15;;;;;;;3.33;1.42;;;;;;;12.09;87.84;100103.31;10306825;28;20084;-65
2022/12/26 12:30:23;;;;;;;4.65;1.88;;;;;;;11.99;87.96;100092.63;10327560;28;20097;-65
2022/12/26 12:35:41;;;;;;;3.28;1.88;;;;;;;11.95;88.70;100103.69;10318412;28;20050;-64
2022/12/26 12:41:05;;;;;;;8.77;3.65;;;;;;;11.93;89.37;100090.50;10314524;28;20351;-64
2022/12/26 12:46:26;;;;;;;12.85;6.30;;;;;;;11.92;89.81;100091.47;10314522;28;20141;-65
2022/12/26 12:51:59;;;;;;;2.22;1.70;;;;;;;11.90;89.52;100080.06;10316415;28;20042;-65
2022/12/26 12:57:03;;;;;;;4.60;2.22;;;;;;;11.95;89.39;100087.69;10316823;28;20050;-65
2022/12/26 13:02:37;;;;;;;1.40;1.30;;;;;;;11.95;89.69;100109.88;10319266;28;20133;-66
2022/12/26 13:07:41;;;;;;;3.15;1.75;;;;;;;11.87;90.11;100080.34;10318165;28;20405;-64
2022/12/26 13:12:50;;;;;;;15.73;10.98;;;;;;;11.83;90.09;100061.13;10313519;28;20636;-64
2022/12/26 13:18:13;;;;;;;35.60;20.33;;;;;;;11.95;89.86;100079.69;10315502;28;20504;-67
2022/12/26 13:29:01;;;;;;;3.50;1.48;;;;;;;11.99;89.13;100073.97;10311840;28;20116;-66
2022/12/26 13:34:06;;;;;;;2.90;1.90;;;;;;;12.13;88.12;100077.19;10313718;28;20072;-65
2022/12/26 13:39:10;;;;;;;3.15;1.92;;;;;;;12.19;86.72;100074.00;10316252;28;20057;-66
2022/12/26 13:44:18;;;;;;;3.25;2.22;;;;;;;12.11;86.41;100049.81;10313742;28;20058;-66
2022/12/26 13:49:39;;;;;;;2.70;0.88;;;;;;;12.07;85.07;100054.59;10306860;28;20107;-65
2022/12/26 13:54:47;;;;;;;2.20;1.13;;;;;;;12.06;84.51;100055.56;10293787;28;20425;-65
2022/12/26 14:00:00;;;;;;;2.05;0.98;;;;;;;12.05;84.78;100043.22;10309613;28;20042;-65
2022/12/26 14:05:17;;;;;;;2.20;1.10;;;;;;;11.98;86.37;100061.59;10309821;28;20038;-65
2022/12/26 14:10:39;;;;;;;4.07;2.15;;;;;;;11.97;88.73;100091.91;10291503;28;20042;-64
2022/12/26 14:15:55;;;;;;;2.60;0.65;;;;;;;11.44;89.04;100090.28;10308923;28;20701;-65
2022/12/26 14:21:19;;;;;;;3.13;0.47;;;;;;;10.98;90.93;100086.25;10285811;28;20057;-65
2022/12/26 14:26:41;;;;;;;1.13;0.20;;;;;;;10.64;91.62;100066.94;10293442;28;20785;-67
2022/12/26 14:31:55;;;;;;;1.58;0.50;;;;;;;10.47;93.59;100077.19;10308097;28;20053;-66
2022/12/26 14:37:11;;;;;;;0.57;0.30;;;;;;;10.59;94.81;100092.13;10308215;28;20061;-65
2022/12/26 14:47:45;;;;;;;1.70;0.60;;;;;;;10.58;95.79;100087.78;10306124;28;20050;-66
2022/12/26 14:52:47;;;;;;;0.95;0.47;;;;;;;10.75;96.41;100096.19;10304946;28;20156;-65
2022/12/26 14:57:49;;;;;;;1.23;0.40;;;;;;;10.95;95.87;100102.50;10293810;28;20545;-65
2022/12/26 15:02:57;;;;;;;2.50;0.75;;;;;;;10.88;94.42;100102.16;10293068;28;20054;-65
2022/12/26 15:08:15;;;;;;;3.40;1.35;;;;;;;10.89;93.80;100098.53;10292703;28;20069;-66
2022/12/26 15:13:35;;;;;;;1.60;0.52;;;;;;;10.92;95.34;100102.75;10305582;28;20054;-65
2022/12/26 15:19:05;;;;;;;1.50;0.50;;;;;;;10.95;92.90;100098.00;10307294;28;20042;-67
2022/12/26 15:24:12;;;;;;;1.70;0.85;;;;;;;10.91;92.00;100125.03;10288873;28;20527;-68
2022/12/26 15:29:40;;;;;;;2.85;1.17;;;;;;;10.88;91.09;100130.59;10304592;28;20054;-65
2022/12/26 15:35:03;;;;;;;1.88;0.55;;;;;;;10.64;89.18;100114.88;10300996;28;20685;-66
2022/12/26 15:40:13;;;;;;;0.60;0.30;;;;;;;10.51;85.24;100110.56;10303431;28;20979;-65
2022/12/26 15:45:34;;;;;;;0.52;0.30;;;;;;;10.44;84.84;100088.91;10299825;28;20053;-66
2022/12/26 15:50:47;;;;;;;0.85;0.45;;;;;;;10.43;85.94;100097.91;10305478;28;20160;-65
2022/12/26 15:56:06;;;;;;;2.72;0.38;;;;;;;10.49;85.85;100106.31;10291932;28;20058;-67
2022/12/26 16:01:09;;;;;;;1.38;0.50;;;;;;;10.47;86.13;100108.28;10308862;28;20054;-64
2022/12/26 16:06:43;;;;;;;1.63;0.75;;;;;;;10.36;85.81;100080.72;10317081;28;20111;-66
2022/12/26 16:11:55;;;;;;;0.60;0.30;;;;;;;10.46;82.68;100106.59;10317857;28;20042;-65
2022/12/26 16:17:12;;;;;;;1.58;0.50;;;;;;;10.42;83.34;100111.31;10320100;28;20239;-65
2022/12/26 16:22:45;;;;;;;0.93;0.38;;;;;;;10.43;83.17;100143.13;10311413;28;20058;-67
2022/12/26 16:27:50;;;;;;;1.00;0.40;;;;;;;10.34;83.89;100129.72;10308548;28;20058;-65
2022/12/26 16:32:52;;;;;;;1.15;0.28;;;;;;;10.37;84.38;100154.28;10309279;28;20050;-65
2022/12/26 16:37:56;;;;;;;1.30;0.98;;;;;;;10.46;86.12;100175.78;10311047;28;20095;-65
2022/12/26 16:43:22;;;;;;;1.20;0.70;;;;;;;10.51;87.91;100177.09;10313956;28;20057;-65
2022/12/26 16:48:26;;;;;;;1.75;0.90;;;;;;;10.36;86.59;100195.16;10316007;28;20128;-65
2022/12/26 16:53:34;;;;;;;0.93;0.60;;;;;;;10.17;88.94;100219.69;10316723;28;20061;-66
2022/12/26 16:58:36;;;;;;;1.10;0.55;;;;;;;9.95;88.99;100225.84;10313517;28;20069;-68
2022/12/26 17:03:38;;;;;;;1.52;0.45;;;;;;;9.90;89.97;100218.22;10313392;28;20054;-70
2022/12/26 17:08:46;;;;;;;1.48;0.65;;;;;;;9.93;90.93;100211.81;10300562;28;20064;-65
2022/12/26 17:13:51;;;;;;;1.88;0.70;;;;;;;9.91;90.19;100217.25;10310670;28;20154;-64
2022/12/26 17:18:55;;;;;;;3.78;1.00;;;;;;;9.81;89.44;100226.91;10316031;28;20077;-64
2022/12/26 17:24:06;;;;;;;2.10;0.70;;;;;;;9.79;89.53;100220.88;10322625;28;22865;-66
2022/12/26 17:29:46;;;;;;;1.83;0.55;;;;;;;9.77;87.99;100195.38;10318203;28;20919;-66
2022/12/26 17:34:48;;;;;;;3.15;1.90;;;;;;;9.70;88.88;100210.97;10328891;28;20413;-65
2022/12/26 17:39:53;;;;;;;2.03;0.80;;;;;;;9.70;88.40;100205.66;10326186;28;20052;-65
2022/12/26 17:45:03;;;;;;;2.90;1.27;;;;;;;9.72;87.67;100164.69;10315568;28;20465;-66
2022/12/26 17:50:04;;;;;;;2.28;1.08;;;;;;;9.75;89.00;100174.22;10325948;28;20057;-65
2022/12/26 17:55:15;;;;;;;1.42;0.70;;;;;;;9.72;88.70;100195.75;10309860;28;20133;-65
2022/12/26 18:00:19;;;;;;;1.95;0.68;;;;;;;9.69;88.53;100236.69;10312497;28;20608;-65
2022/12/26 18:05:21;;;;;;;1.90;0.75;;;;;;;9.65;88.96;100255.66;10322312;28;20060;-64
2022/12/26 18:10:27;;;;;;;3.83;1.08;;;;;;;9.72;88.77;100267.50;10329870;28;20877;-65
2022/12/26 18:15:30;;;;;;;2.20;0.90;;;;;;;9.70;87.32;100285.41;10327931;28;20720;-66
2022/12/26 18:20:31;;;;;;;2.00;0.43;;;;;;;9.51;87.55;100292.09;10307418;28;20140;-66
2022/12/26 18:25:33;;;;;;;1.60;0.60;;;;;;;9.47;87.22;100316.34;10308681;28;20116;-64
2022/12/26 18:30:34;;;;;;;1.95;0.88;;;;;;;9.52;87.58;100322.19;10321471;28;20084;-67
2022/12/26 18:35:41;;;;;;;1.40;0.77;;;;;;;9.63;86.78;100342.63;10321247;28;20844;-64
2022/12/26 18:40:45;;;;;;;0.85;0.50;;;;;;;9.64;86.86;100347.84;10307937;28;20456;-66
2022/12/26 18:45:47;;;;;;;2.13;0.60;;;;;;;9.72;90.44;100363.19;10320467;28;20056;-65
2022/12/26 18:50:49;;;;;;;1.48;0.70;;;;;;;9.68;90.06;100375.03;10322268;28;20054;-65
2022/12/26 18:55:50;;;;;;;2.65;1.05;;;;;;;9.75;90.26;100373.59;10327443;28;20109;-65
2022/12/26 19:00:52;;;;;;;2.50;0.90;;;;;;;9.88;90.03;100385.00;10326166;28;20127;-65
2022/12/26 19:05:53;;;;;;;4.60;0.88;;;;;;;9.62;92.56;100378.13;10331619;28;20076;-65
2022/12/26 19:10:54;;;;;;;3.53;1.80;;;;;;;9.72;93.15;100395.09;10319602;28;20732;-66
2022/12/26 19:15:58;;;;;;;1.73;0.57;;;;;;;9.74;89.64;100409.13;10317051;28;20244;-65
2022/12/26 19:21:00;;;;;;;0.80;0.33;;;;;;;9.45;85.22;100422.75;10327858;28;21178;-65
2022/12/26 19:26:08;;;;;;;1.67;0.40;;;;;;;9.24;85.56;100426.97;10316187;28;20042;-62
2022/12/26 19:31:13;;;;;;;1.55;0.52;;;;;;;9.38;84.76;100450.72;10321082;28;20053;-64
2022/12/26 19:36:16;;;;;;;1.13;0.40;;;;;;;9.44;84.33;100476.00;10307243;28;20685;-64
2022/12/26 19:41:17;;;;;;;1.27;0.73;;;;;;;9.38;82.83;100462.22;10327630;28;20519;-66
2022/12/26 19:46:18;;;;;;;2.38;1.20;;;;;;;9.05;81.69;100465.44;10327057;28;20058;-65
2022/12/26 19:51:21;;;;;;;1.67;1.00;;;;;;;9.09;80.94;100485.53;10322682;28;20058;-66
2022/12/26 19:56:25;;;;;;;1.30;0.80;;;;;;;9.16;83.42;100489.47;10322806;28;20699;-64
2022/12/26 20:01:29;;;;;;;1.77;0.65;;;;;;;9.27;81.85;100498.47;10323473;28;20579;-64
2022/12/26 20:06:33;;;;;;;2.20;1.05;;;;;;;9.08;82.51;100502.41;10325398;28;20076;-65
2022/12/26 20:11:38;;;;;;;2.05;0.70;;;;;;;9.06;81.10;100488.41;10320567;28;20050;-64
2022/12/26 20:16:40;;;;;;;1.27;1.02;;;;;;;9.03;82.30;100528.44;10316852;28;20061;-66
2022/12/26 20:22:01;;;;;;;2.58;0.82;;;;;;;9.08;82.49;100523.66;10316724;28;20054;-66
2022/12/26 20:27:03;;;;;;;1.75;0.70;;;;;;;8.79;80.74;100544.28;10304665;28;20050;-64
2022/12/26 20:32:04;;;;;;;3.60;1.05;;;;;;;8.89;83.52;100557.75;10315900;28;20121;-65
2022/12/26 20:37:06;;;;;;;2.30;0.98;;;;;;;8.85;80.13;100565.94;10319760;28;20136;-65
2022/12/26 20:42:07;;;;;;;2.20;0.90;;;;;;;8.77;82.10;100589.50;10317921;28;20141;-66
2022/12/26 20:47:09;;;;;;;2.08;0.95;;;;;;;8.77;79.96;100609.91;10305708;28;20057;-65
2022/12/26 20:52:10;;;;;;;2.13;0.90;;;;;;;8.68;78.70;100606.06;10327070;28;20097;-65
2022/12/26 20:57:12;;;;;;;3.10;1.30;;;;;;;8.71;77.90;100631.50;10316293;28;20057;-64
2022/12/26 21:02:13;;;;;;;2.05;0.88;;;;;;;8.41;77.62;100646.69;10330140;28;20239;-64
2022/12/26 21:07:15;;;;;;;2.38;1.15;;;;;;;8.17;75.55;100650.91;10337156;28;20054;-65
2022/12/26 21:12:16;;;;;;;1.63;0.60;;;;;;;8.00;74.30;100650.22;10339121;28;20046;-64
2022/12/26 21:17:18;;;;;;;2.38;0.98;;;;;;;8.01;73.37;100686.34;10342819;28;20096;-64
2022/12/26 21:22:20;;;;;;;1.70;0.70;;;;;;;7.77;72.05;100692.22;10340399;28;20564;-62
2022/12/26 21:27:21;;;;;;;1.45;0.98;;;;;;;7.84;72.69;100705.97;10325963;28;20144;-66
2022/12/26 21:32:22;;;;;;;2.78;0.82;;;;;;;7.60;70.84;100726.88;10327426;28;20072;-62
2022/12/26 21:42:45;;;;;;;1.33;0.70;;;;;;;7.30;70.10;100743.66;10318035;28;20042;-62
2022/12/26 21:47:46;;;;;;;1.60;0.70;;;;;;;7.39;69.15;100763.47;10310952;28;20049;-66
2022/12/26 21:52:47;;;;;;;2.70;0.80;;;;;;;7.25;68.64;100766.88;10312148;28;20054;-66
2022/12/26 21:57:49;;;;;;;2.58;0.90;;;;;;;7.13;68.30;100776.44;10311252;28;20509;-66
2022/12/26 22:08:10;;;;;;;1.35;0.63;;;;;;;7.00;69.54;100793.94;10310879;28;20077;-66
2022/12/26 22:13:12;;;;;;;4.82;1.20;;;;;;;7.05;69.26;100808.59;10310415;28;20046;-66
2022/12/26 22:18:13;;;;;;;2.20;1.23;;;;;;;7.07;66.50;100817.34;10291197;28;20053;-66
2022/12/26 22:23:14;;;;;;;3.10;2.25;;;;;;;6.93;67.49;100811.13;10299446;28;20054;-66
2022/12/26 22:28:16;;;;;;;3.63;1.52;;;;;;;6.95;66.75;100836.56;10291340;28;20156;-66
2022/12/26 22:33:24;;;;;;;2.28;1.23;;;;;;;7.07;69.88;100859.69;10303905;28;20038;-65
2022/12/26 22:38:26;;;;;;;2.35;0.60;;;;;;;7.15;67.88;100872.50;10299177;28;20046;-67
2022/12/26 22:43:28;;;;;;;3.03;1.13;;;;;;;6.94;68.06;100873.72;10291177;28;20141;-65
2022/12/26 22:48:29;;;;;;;1.85;1.02;;;;;;;6.91;68.49;100882.66;10311686;28;20139;-66
2022/12/26 22:53:31;;;;;;;2.97;0.98;;;;;;;6.94;66.96;100901.03;10287992;28;20057;-63
2022/12/26 22:58:33;;;;;;;1.73;0.70;;;;;;;6.78;65.93;100916.03;10325349;28;20140;-64
2022/12/26 23:03:34;;;;;;;1.85;0.98;;;;;;;6.73;67.27;100921.56;10287486;28;20176;-64
2022/12/26 23:08:36;;;;;;;1.20;0.80;;;;;;;6.76;65.28;100933.78;10286560;28;20121;-65
2022/12/26 23:13:37;;;;;;;2.10;0.85;;;;;;;6.64;62.08;100949.38;10304008;28;20103;-65
2022/12/26 23:24:05;;;;;;;;;;;;;;;6.71;63.55;100945.47;10302147;28;21215;-65
2022/12/26 23:34:29;;;;;;;1.58;0.60;;;;;;;6.48;62.89;100935.22;10305298;28;20140;-64
2022/12/26 23:39:31;;;;;;;2.28;0.88;;;;;;;6.52;62.96;100947.38;10288809;28;20634;-65
2022/12/26 23:44:32;;;;;;;1.70;0.80;;;;;;;6.40;64.83;100926.88;10303159;28;20046;-65
2022/12/26 23:49:34;;;;;;;1.98;0.82;;;;;;;6.41;66.62;100939.13;10298259;28;20358;-65
2022/12/26 23:54:35;;;;;;;2.88;0.77;;;;;;;6.30;64.90;100953.75;10306792;28;20169;-65
2022/12/26 23:59:37;;;;;;;2.47;0.80;;;;;;;6.17;66.03;100940.34;10305172;28;20291;-65
